FAOR/JNB METAR and TAF weather

Enter ICAO airport designator
Station Type Date Time Source
FAOR METAR 2019/10/21 05:30 UTC NOAA

FAOR 210530Z 16009KT CAVOK 25/M05 Q1020 NOSIG


Station Type Date Time Source
FAOR Decoded METAR 2019/10/21 05:30 UTC NOAA

Station name not available
Oct 21, 2019 - 01:30 AM EDT / 2019.10.21 0530 UTC
Wind: from the SSE (160 degrees) at 10 MPH (9 KT):0
Visibility: greater than 7 mile(s):0
Temperature: 77 F (25 C)
Dew Point: 23 F (-5 C)
Relative Humidity: 13%
Pressure (altimeter): 30.12 in. Hg (1020 hPa)
ob: FAOR 210530Z 16009KT CAVOK 25/M05 Q1020 NOSIG
cycle: 5

Station Type Date Time Source
FAOR TAF 2019/10/21 06:00 UTC NOAA

TAF FAOR 210400Z 2106/2212 VRB03KT CAVOK TX33/2113Z TN14/2204Z
BECMG 2108/2110 28013KT PROB30
TEMPO 2111/2115 22018G28KT FEW050TCU
BECMG 2116/2118 19008KT PROB40
TEMPO 2202/2205 5000 BR NSC
BECMG 2204/2206 02008KT
BECMG 2208/2210 35015G30KT

Example: see airport list